Private Wetterstation Nrnberg - Katzwang
Wetterdaten: November 2012
Datum Temp. A. Feuchte A. Luftdruck Regen Wind Richtung Taupunkt Windchill Windben
01.11.2012 7,6 C 81 % 991 hPa 2,1 l/m 3,1 km/h N-NO 4,6 C 6,7 C 4,1 km/h
02.11.2012 8,0 C 78 % 1000 hPa 3,1 l/m 12,3 km/h N 4,2 C 3,6 C 14,0 km/h
03.11.2012 10,2 C 81 % 1003 hPa 9,3 l/m 5,7 km/h N-NO 7,1 C 8,6 C 6,7 km/h
04.11.2012 9,8 C 85 % 1000 hPa 18,1 l/m 4,9 km/h N-NO 7,3 C 9,1 C 5,9 km/h
05.11.2012 6,7 C 84 % 1003 hPa 1,0 l/m 3,4 km/h N 4,1 C 6,0 C 4,4 km/h
06.11.2012 3,3 C 85 % 1016 hPa 3,1 l/m 2,9 km/h W-NW 1,0 C 2,3 C 3,9 km/h
07.11.2012 6,3 C 85 % 1023 hPa 1,0 l/m 3,6 km/h N 4,0 C 4,9 C 4,6 km/h
08.11.2012 6,8 C 84 % 1018 hPa 0,0 l/m 2,3 km/h N 4,3 C 6,8 C 3,3 km/h
09.11.2012 6,4 C 82 % 1013 hPa 0,0 l/m 3,6 km/h N-NO 3,4 C 6,4 C 4,6 km/h
10.11.2012 8,1 C 81 % 1004 hPa 1,6 l/m 9,7 km/h N-NO 5,1 C 6,1 C 10,7 km/h
11.11.2012 8,4 C 87 % 1011 hPa 12,4 l/m 0,0 km/h N-NO 6,4 C 8,4 C 1,0 km/h
12.11.2012 5,3 C 85 % 1024 hPa 0,0 l/m 1,0 km/h N 2,9 C 5,3 C 2,0 km/h
13.11.2012 1,5 C 83 % 1029 hPa 0,0 l/m 0,0 km/h N-NO -1,1 C 1,5 C 1,0 km/h
14.11.2012 3,0 C 87 % 1025 hPa 0,0 l/m 1,4 km/h N-NO 1,0 C 3,0 C 2,4 km/h
15.11.2012 3,3 C 85 % 1020 hPa 0,0 l/m 8,7 km/h N-NO 1,0 C 1,3 C 9,7 km/h
16.11.2012 3,0 C 85 % 1016 hPa 0,0 l/m 10,4 km/h N-NO 0,7 C -0,4 C 11,4 km/h
17.11.2012 1,5 C 85 % 1012 hPa 0,0 l/m 7,5 km/h N-NO -0,7 C -0,8 C 8,5 km/h
18.11.2012 3,3 C 85 % 1012 hPa 0,0 l/m 3,1 km/h N-NO 1,0 C 3,3 C 4,1 km/h
19.11.2012 1,3 C 85 % 1015 hPa 0,5 l/m 0,0 km/h N-NO -0,9 C 1,3 C 1,0 km/h
20.11.2012 3,5 C 86 % 1018 hPa 0,0 l/m 5,8 km/h N-NO 1,4 C 2,4 C 6,8 km/h
21.11.2012 4,1 C 85 % 1017 hPa 0,0 l/m 10,1 km/h N-NO 1,9 C 1,2 C 11,1 km/h
22.11.2012 5,8 C 85 % 1021 hPa 0,0 l/m 0,0 km/h N-NO 3,6 C 5,8 C 1,0 km/h
23.11.2012 5,6 C 86 % 1018 hPa 0,0 l/m 9,9 km/h N-NO 3,4 C 3,2 C 10,9 km/h
24.11.2012 5,0 C 86 % 1016 hPa 0,0 l/m 5,8 km/h N-NO 2,8 C 5,0 C 6,8 km/h
25.11.2012 7,1 C 79 % 1013 hPa 0,0 l/m 1,5 km/h N 3,7 C 7,1 C 2,5 km/h
26.11.2012 7,6 C 86 % 1007 hPa 0,5 l/m 6,8 km/h N-NO 5,4 C 6,2 C 7,8 km/h
27.11.2012 7,0 C 85 % 1003 hPa 0,0 l/m 0,0 km/h N 4,6 C 7,0 C 1,0 km/h
28.11.2012 6,1 C 87 % 996 hPa 1,6 l/m 0,5 km/h N-NO 4,0 C 6,1 C 1,5 km/h
29.11.2012 0,7 C 88 % 996 hPa 24,3 l/m 0,0 km/h N -1,1 C 0,7 C 1,0 km/h
30.11.2012 0,8 C 87 % 1006 hPa 4,7 l/m 0,0 km/h N -1,2 C 0,8 C 1,0 km/h
Min-Datum 13.11.12 02.11.12 01.11.12 14 Tage 01.11.12 - 13.11.12 29.11.12 01.11.12
Min-Zeit 07:20 15:00 13:30 - 00:00 - 07:20 12:30 00:00
Minimum -2,2 C 57 % 989 hPa - 0,0 km/h - -4,2 C -10,2 C 1,0 km/h
Max-Datum 25.11.12 14.11.12 13.11.12 29.11.12 07.11.12 - 03.11.12 25.11.12 29.11.12
Max-Zeit 13:50 10:20 10:10 04:20 06:50 - 14:10 13:50 12:30
Maximum 14,4 C 90 % 1031 hPa 24,3 l/m 34,2 km/h
N
- 10,1 C 14,4 C 47,5 km/h
N
Durchschnitt 5,2 C 84 % 1012 hPa #83,4 l/m 4,1 km/h N-NO 2,8 C 4,3 C 5,2 km/h

Durchschnitt Minimum Temp.2,8 C
Durchschnitt Maximum Temp.8,2 C